Terminal Aerodrome Forecast
Issued by NWS Sioux Falls, SD

Home | Current Version | Previous Version | Text Only | Print | Product List | Glossary Off
Versions: 1 2 3 4 5 6 7 8 9 10 11 12 13 14 15 16 17 18 19 20 21 22 23 24 25 26 27

000
FTUS43 KFSD 270522
TAFSUX
TAF
KSUX 270522Z 2706/2806 16006KT P6SM SCT120 BKN250
     FM271800 02009KT P6SM BKN250
     FM272100 VRB03KT P6SM SHRA VCTS OVC080CB
     FM280100 36006KT P6SM OVC070=

USA.gov is the U.S. government's official web portal to all federal, state and local government web resources and services.